sensor_id;sensor_type;location;lat;lon;timestamp;P1;durP1;ratioP1;P2;durP2;ratioP2
59189;SDS011;50749;51.636;4.948;2022-09-11T00:00:42;2.03;;;0.82;;
59189;SDS011;50749;51.636;4.948;2022-09-11T00:03:24;1.98;;;0.90;;
59189;SDS011;50749;51.636;4.948;2022-09-11T00:05:52;1.58;;;1.00;;
59189;SDS011;50749;51.636;4.948;2022-09-11T00:08:19;1.73;;;1.02;;
59189;SDS011;50749;51.636;4.948;2022-09-11T00:10:46;2.08;;;1.08;;
59189;SDS011;50749;51.636;4.948;2022-09-11T00:13:17;1.20;;;0.88;;
59189;SDS011;50749;51.636;4.948;2022-09-11T00:15:46;1.95;;;1.10;;
59189;SDS011;50749;51.636;4.948;2022-09-11T00:18:15;1.55;;;0.90;;
59189;SDS011;50749;51.636;4.948;2022-09-11T00:20:47;2.15;;;0.90;;
59189;SDS011;50749;51.636;4.948;2022-09-11T00:23:15;1.70;;;1.02;;
59189;SDS011;50749;51.636;4.948;2022-09-11T00:25:42;2.08;;;0.90;;
59189;SDS011;50749;51.636;4.948;2022-09-11T00:28:12;1.95;;;1.15;;
59189;SDS011;50749;51.636;4.948;2022-09-11T00:30:41;1.50;;;0.90;;
59189;SDS011;50749;51.636;4.948;2022-09-11T00:33:08;1.42;;;1.10;;
59189;SDS011;50749;51.636;4.948;2022-09-11T00:35:37;3.20;;;1.00;;
59189;SDS011;50749;51.636;4.948;2022-09-11T00:38:04;1.80;;;1.02;;
59189;SDS011;50749;51.636;4.948;2022-09-11T00:40:30;1.00;;;0.82;;
59189;SDS011;50749;51.636;4.948;2022-09-11T00:42:56;2.65;;;1.00;;
59189;SDS011;50749;51.636;4.948;2022-09-11T00:45:24;1.70;;;1.05;;
59189;SDS011;50749;51.636;4.948;2022-09-11T00:47:53;1.30;;;0.90;;
59189;SDS011;50749;51.636;4.948;2022-09-11T00:50:24;3.38;;;1.02;;
59189;SDS011;50749;51.636;4.948;2022-09-11T00:52:54;1.98;;;1.05;;
59189;SDS011;50749;51.636;4.948;2022-09-11T00:55:25;1.60;;;1.10;;
59189;SDS011;50749;51.636;4.948;2022-09-11T00:57:57;1.73;;;1.00;;
59189;SDS011;50749;51.636;4.948;2022-09-11T01:00:25;1.98;;;1.00;;
59189;SDS011;50749;51.636;4.948;2022-09-11T01:02:52;2.20;;;1.05;;
59189;SDS011;50749;51.636;4.948;2022-09-11T01:05:19;1.25;;;0.98;;
59189;SDS011;50749;51.636;4.948;2022-09-11T01:07:50;1.27;;;0.90;;
59189;SDS011;50749;51.636;4.948;2022-09-11T01:10:23;1.42;;;0.93;;
59189;SDS011;50749;51.636;4.948;2022-09-11T01:12:59;1.42;;;0.90;;
59189;SDS011;50749;51.636;4.948;2022-09-11T01:18:22;1.67;;;1.10;;
59189;SDS011;50749;51.636;4.948;2022-09-11T01:31:58;1.40;;;0.98;;
59189;SDS011;50749;51.636;4.948;2022-09-11T01:35:00;1.77;;;1.00;;
59189;SDS011;50749;51.636;4.948;2022-09-11T01:37:36;2.05;;;1.00;;
59189;SDS011;50749;51.636;4.948;2022-09-11T01:40:11;2.17;;;1.00;;
59189;SDS011;50749;51.636;4.948;2022-09-11T01:42:46;1.77;;;1.10;;
59189;SDS011;50749;51.636;4.948;2022-09-11T01:45:17;1.95;;;1.10;;
59189;SDS011;50749;51.636;4.948;2022-09-11T01:47:45;2.85;;;1.92;;
59189;SDS011;50749;51.636;4.948;2022-09-11T01:50:14;1.33;;;0.98;;
59189;SDS011;50749;51.636;4.948;2022-09-11T01:52:56;2.65;;;1.40;;
59189;SDS011;50749;51.636;4.948;2022-09-11T01:55:29;1.92;;;1.17;;
59189;SDS011;50749;51.636;4.948;2022-09-11T01:58:12;1.55;;;1.05;;
59189;SDS011;50749;51.636;4.948;2022-09-11T02:00:44;1.38;;;0.80;;
59189;SDS011;50749;51.636;4.948;2022-09-11T02:05:41;2.88;;;1.00;;
59189;SDS011;50749;51.636;4.948;2022-09-11T02:08:12;2.70;;;1.10;;
59189;SDS011;50749;51.636;4.948;2022-09-11T02:10:44;1.83;;;1.08;;
59189;SDS011;50749;51.636;4.948;2022-09-11T02:13:23;1.48;;;1.10;;
59189;SDS011;50749;51.636;4.948;2022-09-11T02:16:06;1.77;;;1.15;;
59189;SDS011;50749;51.636;4.948;2022-09-11T02:18:42;1.63;;;1.02;;
59189;SDS011;50749;51.636;4.948;2022-09-11T02:21:15;3.75;;;1.40;;
59189;SDS011;50749;51.636;4.948;2022-09-11T02:23:41;2.15;;;1.05;;
59189;SDS011;50749;51.636;4.948;2022-09-11T02:26:07;1.30;;;1.05;;
59189;SDS011;50749;51.636;4.948;2022-09-11T02:28:37;1.58;;;1.23;;
59189;SDS011;50749;51.636;4.948;2022-09-11T02:31:03;1.98;;;1.08;;
59189;SDS011;50749;51.636;4.948;2022-09-11T02:33:30;2.08;;;1.33;;
59189;SDS011;50749;51.636;4.948;2022-09-11T02:36:05;1.73;;;1.02;;
59189;SDS011;50749;51.636;4.948;2022-09-11T02:47:39;2.10;;;0.93;;
59189;SDS011;50749;51.636;4.948;2022-09-11T02:58:51;1.25;;;0.80;;
59189;SDS011;50749;51.636;4.948;2022-09-11T03:01:21;2.10;;;1.08;;
59189;SDS011;50749;51.636;4.948;2022-09-11T03:03:47;2.47;;;1.17;;
59189;SDS011;50749;51.636;4.948;2022-09-11T03:06:14;1.67;;;0.98;;
59189;SDS011;50749;51.636;4.948;2022-09-11T03:08:43;1.83;;;1.27;;
59189;SDS011;50749;51.636;4.948;2022-09-11T03:11:09;1.95;;;1.38;;
59189;SDS011;50749;51.636;4.948;2022-09-11T03:13:35;1.58;;;1.05;;
59189;SDS011;50749;51.636;4.948;2022-09-11T03:16:05;1.30;;;0.82;;
59189;SDS011;50749;51.636;4.948;2022-09-11T03:18:32;1.55;;;1.10;;
59189;SDS011;50749;51.636;4.948;2022-09-11T03:20:58;2.33;;;1.00;;
59189;SDS011;50749;51.636;4.948;2022-09-11T03:23:25;1.38;;;0.98;;
59189;SDS011;50749;51.636;4.948;2022-09-11T03:25:51;1.45;;;0.90;;
59189;SDS011;50749;51.636;4.948;2022-09-11T03:28:17;2.03;;;1.10;;
59189;SDS011;50749;51.636;4.948;2022-09-11T03:30:43;3.05;;;1.08;;
59189;SDS011;50749;51.636;4.948;2022-09-11T03:33:09;1.38;;;0.85;;
59189;SDS011;50749;51.636;4.948;2022-09-11T03:35:35;1.70;;;0.90;;
59189;SDS011;50749;51.636;4.948;2022-09-11T03:38:01;1.00;;;0.90;;
59189;SDS011;50749;51.636;4.948;2022-09-11T03:40:27;1.25;;;0.88;;
59189;SDS011;50749;51.636;4.948;2022-09-11T03:42:52;1.20;;;0.85;;
59189;SDS011;50749;51.636;4.948;2022-09-11T03:45:18;1.80;;;1.05;;
59189;SDS011;50749;51.636;4.948;2022-09-11T03:47:45;2.05;;;1.10;;
59189;SDS011;50749;51.636;4.948;2022-09-11T03:50:11;1.25;;;0.93;;
59189;SDS011;50749;51.636;4.948;2022-09-11T03:52:37;1.90;;;1.13;;
59189;SDS011;50749;51.636;4.948;2022-09-11T03:55:04;1.50;;;1.10;;
59189;SDS011;50749;51.636;4.948;2022-09-11T03:57:36;1.30;;;0.80;;
59189;SDS011;50749;51.636;4.948;2022-09-11T04:00:03;1.10;;;0.85;;
59189;SDS011;50749;51.636;4.948;2022-09-11T04:02:30;1.63;;;0.68;;
59189;SDS011;50749;51.636;4.948;2022-09-11T04:04:56;2.40;;;1.00;;
59189;SDS011;50749;51.636;4.948;2022-09-11T04:07:22;1.88;;;0.93;;
59189;SDS011;50749;51.636;4.948;2022-09-11T04:09:48;1.33;;;1.08;;
59189;SDS011;50749;51.636;4.948;2022-09-11T04:12:13;1.52;;;1.00;;
59189;SDS011;50749;51.636;4.948;2022-09-11T04:14:40;1.85;;;1.05;;
59189;SDS011;50749;51.636;4.948;2022-09-11T04:17:06;1.65;;;1.00;;
59189;SDS011;50749;51.636;4.948;2022-09-11T04:19:33;1.52;;;1.17;;
59189;SDS011;50749;51.636;4.948;2022-09-11T04:21:59;1.88;;;0.90;;
59189;SDS011;50749;51.636;4.948;2022-09-11T04:24:25;2.08;;;1.00;;
59189;SDS011;50749;51.636;4.948;2022-09-11T04:26:51;3.25;;;1.20;;
59189;SDS011;50749;51.636;4.948;2022-09-11T04:29:17;1.98;;;1.10;;
59189;SDS011;50749;51.636;4.948;2022-09-11T04:31:43;1.50;;;0.93;;
59189;SDS011;50749;51.636;4.948;2022-09-11T04:34:09;1.10;;;0.80;;
59189;SDS011;50749;51.636;4.948;2022-09-11T04:36:35;1.42;;;1.00;;
59189;SDS011;50749;51.636;4.948;2022-09-11T04:39:01;0.95;;;0.80;;
59189;SDS011;50749;51.636;4.948;2022-09-11T04:41:27;1.00;;;0.80;;
59189;SDS011;50749;51.636;4.948;2022-09-11T04:43:54;1.77;;;0.98;;
59189;SDS011;50749;51.636;4.948;2022-09-11T04:46:25;1.50;;;0.85;;
59189;SDS011;50749;51.636;4.948;2022-09-11T04:48:52;2.88;;;0.80;;
59189;SDS011;50749;51.636;4.948;2022-09-11T04:51:21;1.40;;;0.80;;
59189;SDS011;50749;51.636;4.948;2022-09-11T04:53:55;2.55;;;0.95;;
59189;SDS011;50749;51.636;4.948;2022-09-11T04:56:25;1.52;;;0.82;;
59189;SDS011;50749;51.636;4.948;2022-09-11T04:59:00;1.27;;;0.80;;
59189;SDS011;50749;51.636;4.948;2022-09-11T05:01:28;1.20;;;0.85;;
59189;SDS011;50749;51.636;4.948;2022-09-11T05:03:55;1.40;;;1.00;;
59189;SDS011;50749;51.636;4.948;2022-09-11T05:06:22;1.52;;;1.13;;
59189;SDS011;50749;51.636;4.948;2022-09-11T05:08:48;7.07;;;3.67;;
59189;SDS011;50749;51.636;4.948;2022-09-11T05:11:15;8.57;;;4.68;;
59189;SDS011;50749;51.636;4.948;2022-09-11T05:13:42;7.72;;;4.63;;
59189;SDS011;50749;51.636;4.948;2022-09-11T05:16:10;8.48;;;5.28;;
59189;SDS011;50749;51.636;4.948;2022-09-11T05:18:38;7.85;;;5.30;;
59189;SDS011;50749;51.636;4.948;2022-09-11T05:21:14;10.43;;;4.78;;
59189;SDS011;50749;51.636;4.948;2022-09-11T05:23:41;9.30;;;5.80;;
59189;SDS011;50749;51.636;4.948;2022-09-11T05:26:12;10.30;;;5.57;;
59189;SDS011;50749;51.636;4.948;2022-09-11T05:28:39;6.75;;;3.85;;
59189;SDS011;50749;51.636;4.948;2022-09-11T05:31:12;4.45;;;3.13;;
59189;SDS011;50749;51.636;4.948;2022-09-11T05:33:43;7.47;;;3.00;;
59189;SDS011;50749;51.636;4.948;2022-09-11T05:36:10;4.88;;;2.88;;
59189;SDS011;50749;51.636;4.948;2022-09-11T05:38:37;4.18;;;2.65;;
59189;SDS011;50749;51.636;4.948;2022-09-11T05:41:06;3.70;;;2.22;;
59189;SDS011;50749;51.636;4.948;2022-09-11T05:43:35;4.07;;;2.30;;
59189;SDS011;50749;51.636;4.948;2022-09-11T05:46:01;2.92;;;2.10;;
59189;SDS011;50749;51.636;4.948;2022-09-11T05:48:27;3.47;;;2.25;;
59189;SDS011;50749;51.636;4.948;2022-09-11T05:50:55;3.47;;;2.30;;
59189;SDS011;50749;51.636;4.948;2022-09-11T05:53:24;3.38;;;2.30;;
59189;SDS011;50749;51.636;4.948;2022-09-11T05:55:50;4.57;;;2.20;;
59189;SDS011;50749;51.636;4.948;2022-09-11T05:58:16;2.85;;;1.67;;
59189;SDS011;50749;51.636;4.948;2022-09-11T06:00:43;2.97;;;1.65;;
59189;SDS011;50749;51.636;4.948;2022-09-11T06:03:11;2.40;;;1.77;;
59189;SDS011;50749;51.636;4.948;2022-09-11T06:05:41;2.40;;;1.50;;
59189;SDS011;50749;51.636;4.948;2022-09-11T06:08:08;4.50;;;1.80;;
59189;SDS011;50749;51.636;4.948;2022-09-11T06:10:35;2.00;;;1.70;;
59189;SDS011;50749;51.636;4.948;2022-09-11T06:13:02;6.57;;;4.20;;
59189;SDS011;50749;51.636;4.948;2022-09-11T06:15:28;7.70;;;5.60;;
59189;SDS011;50749;51.636;4.948;2022-09-11T06:17:54;7.95;;;4.68;;
59189;SDS011;50749;51.636;4.948;2022-09-11T06:20:20;7.97;;;4.43;;
59189;SDS011;50749;51.636;4.948;2022-09-11T06:22:46;6.63;;;4.32;;
59189;SDS011;50749;51.636;4.948;2022-09-11T06:25:12;5.82;;;4.32;;
59189;SDS011;50749;51.636;4.948;2022-09-11T06:27:38;7.13;;;4.35;;
59189;SDS011;50749;51.636;4.948;2022-09-11T06:30:03;9.05;;;5.00;;
59189;SDS011;50749;51.636;4.948;2022-09-11T06:32:29;8.23;;;4.97;;
59189;SDS011;50749;51.636;4.948;2022-09-11T06:34:55;6.65;;;4.85;;
59189;SDS011;50749;51.636;4.948;2022-09-11T06:37:23;6.75;;;4.68;;
59189;SDS011;50749;51.636;4.948;2022-09-11T06:39:48;7.35;;;5.07;;
59189;SDS011;50749;51.636;4.948;2022-09-11T06:42:14;6.50;;;4.57;;
59189;SDS011;50749;51.636;4.948;2022-09-11T06:44:40;8.05;;;4.47;;
59189;SDS011;50749;51.636;4.948;2022-09-11T06:47:06;6.78;;;4.57;;
59189;SDS011;50749;51.636;4.948;2022-09-11T06:49:32;6.38;;;4.57;;
59189;SDS011;50749;51.636;4.948;2022-09-11T06:51:58;8.82;;;4.80;;
59189;SDS011;50749;51.636;4.948;2022-09-11T06:54:23;6.35;;;4.20;;
59189;SDS011;50749;51.636;4.948;2022-09-11T06:56:49;6.85;;;4.82;;
59189;SDS011;50749;51.636;4.948;2022-09-11T06:59:15;6.80;;;4.70;;
59189;SDS011;50749;51.636;4.948;2022-09-11T07:01:40;10.15;;;5.03;;
59189;SDS011;50749;51.636;4.948;2022-09-11T07:04:07;7.65;;;5.05;;
59189;SDS011;50749;51.636;4.948;2022-09-11T07:06:34;9.43;;;5.20;;
59189;SDS011;50749;51.636;4.948;2022-09-11T07:09:02;10.35;;;5.90;;
59189;SDS011;50749;51.636;4.948;2022-09-11T07:11:29;7.75;;;5.95;;
59189;SDS011;50749;51.636;4.948;2022-09-11T07:13:57;10.52;;;5.88;;
59189;SDS011;50749;51.636;4.948;2022-09-11T07:16:23;7.68;;;5.65;;
59189;SDS011;50749;51.636;4.948;2022-09-11T07:18:50;12.25;;;8.38;;
59189;SDS011;50749;51.636;4.948;2022-09-11T07:21:17;13.40;;;9.75;;
59189;SDS011;50749;51.636;4.948;2022-09-11T07:23:48;14.13;;;9.25;;
59189;SDS011;50749;51.636;4.948;2022-09-11T07:26:16;16.90;;;10.63;;
59189;SDS011;50749;51.636;4.948;2022-09-11T07:28:43;14.93;;;9.57;;
59189;SDS011;50749;51.636;4.948;2022-09-11T07:31:09;16.55;;;10.95;;
59189;SDS011;50749;51.636;4.948;2022-09-11T07:33:38;18.73;;;11.13;;
59189;SDS011;50749;51.636;4.948;2022-09-11T07:36:07;15.52;;;10.60;;
59189;SDS011;50749;51.636;4.948;2022-09-11T07:38:39;15.27;;;11.07;;
59189;SDS011;50749;51.636;4.948;2022-09-11T07:41:06;18.10;;;11.48;;
59189;SDS011;50749;51.636;4.948;2022-09-11T07:43:36;16.63;;;11.93;;
59189;SDS011;50749;51.636;4.948;2022-09-11T07:46:03;17.30;;;11.18;;
59189;SDS011;50749;51.636;4.948;2022-09-11T07:48:30;18.95;;;11.82;;
59189;SDS011;50749;51.636;4.948;2022-09-11T07:50:57;17.67;;;10.90;;
59189;SDS011;50749;51.636;4.948;2022-09-11T07:53:39;16.35;;;10.65;;
59189;SDS011;50749;51.636;4.948;2022-09-11T07:56:09;18.20;;;10.63;;
59189;SDS011;50749;51.636;4.948;2022-09-11T07:58:37;15.43;;;10.75;;
59189;SDS011;50749;51.636;4.948;2022-09-11T08:01:05;16.63;;;10.88;;
59189;SDS011;50749;51.636;4.948;2022-09-11T08:03:33;16.70;;;11.27;;
59189;SDS011;50749;51.636;4.948;2022-09-11T08:06:00;15.85;;;10.05;;
59189;SDS011;50749;51.636;4.948;2022-09-11T08:08:28;15.88;;;11.20;;
59189;SDS011;50749;51.636;4.948;2022-09-11T08:10:56;16.48;;;10.80;;
59189;SDS011;50749;51.636;4.948;2022-09-11T08:13:25;16.95;;;11.05;;
59189;SDS011;50749;51.636;4.948;2022-09-11T08:15:51;16.40;;;11.45;;
59189;SDS011;50749;51.636;4.948;2022-09-11T08:18:17;16.48;;;10.88;;
59189;SDS011;50749;51.636;4.948;2022-09-11T08:20:43;16.35;;;11.35;;
59189;SDS011;50749;51.636;4.948;2022-09-11T08:23:10;15.43;;;11.27;;
59189;SDS011;50749;51.636;4.948;2022-09-11T08:25:37;11.55;;;7.78;;
59189;SDS011;50749;51.636;4.948;2022-09-11T08:28:03;12.95;;;8.05;;
59189;SDS011;50749;51.636;4.948;2022-09-11T08:30:30;8.82;;;6.60;;
59189;SDS011;50749;51.636;4.948;2022-09-11T08:32:57;10.77;;;7.68;;
59189;SDS011;50749;51.636;4.948;2022-09-11T08:35:23;9.05;;;5.65;;
59189;SDS011;50749;51.636;4.948;2022-09-11T08:37:50;6.80;;;5.15;;
59189;SDS011;50749;51.636;4.948;2022-09-11T08:40:18;7.93;;;6.95;;
59189;SDS011;50749;51.636;4.948;2022-09-11T08:42:44;8.82;;;6.88;;
59189;SDS011;50749;51.636;4.948;2022-09-11T08:45:13;10.68;;;7.28;;
59189;SDS011;50749;51.636;4.948;2022-09-11T08:47:53;10.13;;;7.82;;
59189;SDS011;50749;51.636;4.948;2022-09-11T08:52:50;11.65;;;8.40;;
59189;SDS011;50749;51.636;4.948;2022-09-11T08:55:19;11.85;;;7.97;;
59189;SDS011;50749;51.636;4.948;2022-09-11T09:00:32;10.43;;;7.28;;
59189;SDS011;50749;51.636;4.948;2022-09-11T09:05:39;11.05;;;8.70;;
59189;SDS011;50749;51.636;4.948;2022-09-11T09:19:16;10.73;;;8.27;;
59189;SDS011;50749;51.636;4.948;2022-09-11T09:24:55;12.30;;;8.23;;
59189;SDS011;50749;51.636;4.948;2022-09-11T09:28:11;10.00;;;6.93;;
59189;SDS011;50749;51.636;4.948;2022-09-11T09:30:27;13.32;;;7.95;;
59189;SDS011;50749;51.636;4.948;2022-09-11T09:35:47;10.65;;;7.72;;
59189;SDS011;50749;51.636;4.948;2022-09-11T09:38:13;10.00;;;6.25;;
59189;SDS011;50749;51.636;4.948;2022-09-11T09:41:10;8.82;;;5.38;;
59189;SDS011;50749;51.636;4.948;2022-09-11T09:43:47;6.07;;;4.40;;
59189;SDS011;50749;51.636;4.948;2022-09-11T09:48:48;5.95;;;3.35;;
59189;SDS011;50749;51.636;4.948;2022-09-11T09:51:15;6.07;;;2.58;;
59189;SDS011;50749;51.636;4.948;2022-09-11T09:53:42;5.75;;;2.30;;
59189;SDS011;50749;51.636;4.948;2022-09-11T09:56:13;3.83;;;2.10;;
59189;SDS011;50749;51.636;4.948;2022-09-11T09:58:57;3.83;;;2.15;;
59189;SDS011;50749;51.636;4.948;2022-09-11T10:04:15;3.90;;;1.95;;
59189;SDS011;50749;51.636;4.948;2022-09-11T10:06:49;2.47;;;1.85;;
59189;SDS011;50749;51.636;4.948;2022-09-11T10:09:17;4.25;;;1.52;;
59189;SDS011;50749;51.636;4.948;2022-09-11T10:11:50;6.85;;;3.28;;
59189;SDS011;50749;51.636;4.948;2022-09-11T10:14:20;5.35;;;3.20;;
59189;SDS011;50749;51.636;4.948;2022-09-11T10:16:49;4.65;;;3.35;;
59189;SDS011;50749;51.636;4.948;2022-09-11T10:19:35;5.03;;;3.75;;
59189;SDS011;50749;51.636;4.948;2022-09-11T10:22:21;6.32;;;3.65;;
59189;SDS011;50749;51.636;4.948;2022-09-11T10:27:23;3.95;;;3.08;;
59189;SDS011;50749;51.636;4.948;2022-09-11T10:29:49;7.35;;;2.97;;
59189;SDS011;50749;51.636;4.948;2022-09-11T10:32:15;7.22;;;3.05;;
59189;SDS011;50749;51.636;4.948;2022-09-11T10:34:42;4.78;;;3.55;;
59189;SDS011;50749;51.636;4.948;2022-09-11T10:39:40;7.72;;;3.72;;
59189;SDS011;50749;51.636;4.948;2022-09-11T10:44:52;6.72;;;3.33;;
59189;SDS011;50749;51.636;4.948;2022-09-11T10:47:25;7.97;;;2.90;;
59189;SDS011;50749;51.636;4.948;2022-09-11T10:53:01;5.03;;;2.72;;
59189;SDS011;50749;51.636;4.948;2022-09-11T10:55:35;4.53;;;2.65;;
59189;SDS011;50749;51.636;4.948;2022-09-11T10:58:18;4.80;;;2.58;;
59189;SDS011;50749;51.636;4.948;2022-09-11T11:00:47;8.32;;;2.65;;
59189;SDS011;50749;51.636;4.948;2022-09-11T11:03:19;6.68;;;2.88;;
59189;SDS011;50749;51.636;4.948;2022-09-11T11:17:43;7.10;;;1.73;;
59189;SDS011;50749;51.636;4.948;2022-09-11T11:21:09;4.50;;;1.83;;
59189;SDS011;50749;51.636;4.948;2022-09-11T11:23:36;3.15;;;1.40;;
59189;SDS011;50749;51.636;4.948;2022-09-11T11:26:44;4.35;;;1.90;;
59189;SDS011;50749;51.636;4.948;2022-09-11T11:37:39;2.20;;;1.30;;
59189;SDS011;50749;51.636;4.948;2022-09-11T11:42:56;3.28;;;1.48;;
59189;SDS011;50749;51.636;4.948;2022-09-11T11:51:05;2.30;;;1.30;;
59189;SDS011;50749;51.636;4.948;2022-09-11T11:53:50;2.03;;;1.50;;
59189;SDS011;50749;51.636;4.948;2022-09-11T12:06:58;4.95;;;1.60;;
59189;SDS011;50749;51.636;4.948;2022-09-11T12:09:27;1.58;;;1.10;;
59189;SDS011;50749;51.636;4.948;2022-09-11T12:11:56;2.20;;;1.23;;
59189;SDS011;50749;51.636;4.948;2022-09-11T12:14:30;2.85;;;1.20;;
59189;SDS011;50749;51.636;4.948;2022-09-11T12:20:11;1.75;;;1.17;;
59189;SDS011;50749;51.636;4.948;2022-09-11T12:22:48;2.13;;;1.60;;
59189;SDS011;50749;51.636;4.948;2022-09-11T12:32:44;2.83;;;1.17;;
59189;SDS011;50749;51.636;4.948;2022-09-11T12:40:39;2.17;;;1.20;;
59189;SDS011;50749;51.636;4.948;2022-09-11T12:43:15;1.75;;;1.15;;
59189;SDS011;50749;51.636;4.948;2022-09-11T12:45:54;3.97;;;1.45;;
59189;SDS011;50749;51.636;4.948;2022-09-11T12:48:22;2.67;;;1.20;;
59189;SDS011;50749;51.636;4.948;2022-09-11T12:50:57;1.92;;;1.20;;
59189;SDS011;50749;51.636;4.948;2022-09-11T12:53:26;1.30;;;1.00;;
59189;SDS011;50749;51.636;4.948;2022-09-11T12:56:04;2.40;;;1.15;;
59189;SDS011;50749;51.636;4.948;2022-09-11T12:58:38;1.73;;;1.20;;
59189;SDS011;50749;51.636;4.948;2022-09-11T13:06:20;2.05;;;1.10;;
59189;SDS011;50749;51.636;4.948;2022-09-11T13:08:49;1.63;;;1.20;;
59189;SDS011;50749;51.636;4.948;2022-09-11T13:11:34;2.42;;;1.15;;
59189;SDS011;50749;51.636;4.948;2022-09-11T13:14:01;2.00;;;1.30;;
59189;SDS011;50749;51.636;4.948;2022-09-11T13:16:28;2.78;;;1.40;;
59189;SDS011;50749;51.636;4.948;2022-09-11T13:19:11;1.38;;;1.10;;
59189;SDS011;50749;51.636;4.948;2022-09-11T13:21:39;1.73;;;1.00;;
59189;SDS011;50749;51.636;4.948;2022-09-11T13:26:56;1.48;;;1.00;;
59189;SDS011;50749;51.636;4.948;2022-09-11T13:29:27;1.50;;;1.10;;
59189;SDS011;50749;51.636;4.948;2022-09-11T13:31:55;1.85;;;0.98;;
59189;SDS011;50749;51.636;4.948;2022-09-11T13:34:24;1.15;;;0.90;;
59189;SDS011;50749;51.636;4.948;2022-09-11T13:36:52;1.65;;;1.05;;
59189;SDS011;50749;51.636;4.948;2022-09-11T13:39:19;1.52;;;1.00;;
59189;SDS011;50749;51.636;4.948;2022-09-11T13:41:46;2.35;;;1.30;;
59189;SDS011;50749;51.636;4.948;2022-09-11T13:46:55;1.08;;;0.90;;
59189;SDS011;50749;51.636;4.948;2022-09-11T13:51:56;1.08;;;0.90;;
59189;SDS011;50749;51.636;4.948;2022-09-11T13:54:25;1.30;;;1.00;;
59189;SDS011;50749;51.636;4.948;2022-09-11T14:04:58;1.50;;;0.90;;
59189;SDS011;50749;51.636;4.948;2022-09-11T14:07:42;1.63;;;0.90;;
59189;SDS011;50749;51.636;4.948;2022-09-11T14:13:13;1.05;;;0.85;;
59189;SDS011;50749;51.636;4.948;2022-09-11T14:21:02;4.03;;;1.10;;
59189;SDS011;50749;51.636;4.948;2022-09-11T14:23:44;1.60;;;1.15;;
59189;SDS011;50749;51.636;4.948;2022-09-11T14:28:46;13.00;;;3.05;;
59189;SDS011;50749;51.636;4.948;2022-09-11T14:34:09;3.70;;;1.73;;
59189;SDS011;50749;51.636;4.948;2022-09-11T14:39:21;3.55;;;2.05;;
59189;SDS011;50749;51.636;4.948;2022-09-11T14:42:10;6.00;;;2.20;;
59189;SDS011;50749;51.636;4.948;2022-09-11T14:44:39;2.85;;;1.85;;
59189;SDS011;50749;51.636;4.948;2022-09-11T14:47:09;3.03;;;1.80;;
59189;SDS011;50749;51.636;4.948;2022-09-11T14:49:40;2.97;;;1.63;;
59189;SDS011;50749;51.636;4.948;2022-09-11T14:52:05;2.20;;;1.52;;
59189;SDS011;50749;51.636;4.948;2022-09-11T14:54:31;3.20;;;1.60;;
59189;SDS011;50749;51.636;4.948;2022-09-11T14:56:58;4.22;;;2.10;;
59189;SDS011;50749;51.636;4.948;2022-09-11T14:59:24;3.58;;;1.90;;
59189;SDS011;50749;51.636;4.948;2022-09-11T15:01:53;4.10;;;1.90;;
59189;SDS011;50749;51.636;4.948;2022-09-11T15:04:21;6.35;;;1.35;;
59189;SDS011;50749;51.636;4.948;2022-09-11T15:06:53;5.03;;;1.70;;
59189;SDS011;50749;51.636;4.948;2022-09-11T15:09:24;4.82;;;1.60;;
59189;SDS011;50749;51.636;4.948;2022-09-11T15:11:49;4.00;;;1.77;;
59189;SDS011;50749;51.636;4.948;2022-09-11T15:14:17;4.32;;;1.80;;
59189;SDS011;50749;51.636;4.948;2022-09-11T15:16:43;2.58;;;2.00;;
59189;SDS011;50749;51.636;4.948;2022-09-11T15:19:10;4.15;;;2.03;;
59189;SDS011;50749;51.636;4.948;2022-09-11T15:21:36;3.13;;;1.90;;
59189;SDS011;50749;51.636;4.948;2022-09-11T15:24:03;3.58;;;2.40;;
59189;SDS011;50749;51.636;4.948;2022-09-11T15:26:30;5.05;;;2.00;;
59189;SDS011;50749;51.636;4.948;2022-09-11T15:28:56;5.18;;;2.15;;
59189;SDS011;50749;51.636;4.948;2022-09-11T15:31:22;4.07;;;2.35;;
59189;SDS011;50749;51.636;4.948;2022-09-11T15:33:49;4.30;;;2.08;;
59189;SDS011;50749;51.636;4.948;2022-09-11T15:36:15;4.03;;;1.88;;
59189;SDS011;50749;51.636;4.948;2022-09-11T15:38:43;3.17;;;2.17;;
59189;SDS011;50749;51.636;4.948;2022-09-11T15:41:15;3.20;;;2.13;;
59189;SDS011;50749;51.636;4.948;2022-09-11T15:43:44;3.40;;;2.20;;
59189;SDS011;50749;51.636;4.948;2022-09-11T15:46:10;3.25;;;2.13;;
59189;SDS011;50749;51.636;4.948;2022-09-11T15:48:37;3.33;;;2.17;;
59189;SDS011;50749;51.636;4.948;2022-09-11T15:51:04;4.05;;;1.98;;
59189;SDS011;50749;51.636;4.948;2022-09-11T15:53:31;3.63;;;2.13;;
59189;SDS011;50749;51.636;4.948;2022-09-11T15:56:02;6.18;;;2.00;;
59189;SDS011;50749;51.636;4.948;2022-09-11T15:58:30;7.68;;;2.20;;
59189;SDS011;50749;51.636;4.948;2022-09-11T16:00:57;3.80;;;2.40;;
59189;SDS011;50749;51.636;4.948;2022-09-11T16:03:23;5.85;;;2.67;;
59189;SDS011;50749;51.636;4.948;2022-09-11T16:05:50;3.53;;;2.22;;
59189;SDS011;50749;51.636;4.948;2022-09-11T16:08:15;6.30;;;2.35;;
59189;SDS011;50749;51.636;4.948;2022-09-11T16:10:41;9.65;;;3.03;;
59189;SDS011;50749;51.636;4.948;2022-09-11T16:13:07;7.32;;;2.30;;
59189;SDS011;50749;51.636;4.948;2022-09-11T16:15:33;6.65;;;2.40;;
59189;SDS011;50749;51.636;4.948;2022-09-11T16:18:00;4.18;;;2.28;;
59189;SDS011;50749;51.636;4.948;2022-09-11T16:20:26;5.55;;;2.63;;
59189;SDS011;50749;51.636;4.948;2022-09-11T16:22:52;5.05;;;2.20;;
59189;SDS011;50749;51.636;4.948;2022-09-11T16:25:19;4.43;;;2.17;;
59189;SDS011;50749;51.636;4.948;2022-09-11T16:27:45;3.47;;;2.20;;
59189;SDS011;50749;51.636;4.948;2022-09-11T16:30:11;5.82;;;2.30;;
59189;SDS011;50749;51.636;4.948;2022-09-11T16:32:37;4.07;;;2.20;;
59189;SDS011;50749;51.636;4.948;2022-09-11T16:35:05;5.07;;;2.88;;
59189;SDS011;50749;51.636;4.948;2022-09-11T16:37:32;7.63;;;3.17;;
59189;SDS011;50749;51.636;4.948;2022-09-11T16:40:00;8.82;;;3.10;;
59189;SDS011;50749;51.636;4.948;2022-09-11T16:42:27;10.82;;;4.32;;
59189;SDS011;50749;51.636;4.948;2022-09-11T16:44:53;14.60;;;4.47;;
59189;SDS011;50749;51.636;4.948;2022-09-11T16:47:20;5.40;;;2.67;;
59189;SDS011;50749;51.636;4.948;2022-09-11T16:49:45;5.53;;;2.97;;
59189;SDS011;50749;51.636;4.948;2022-09-11T16:52:11;5.82;;;2.58;;
59189;SDS011;50749;51.636;4.948;2022-09-11T16:54:37;7.68;;;3.15;;
59189;SDS011;50749;51.636;4.948;2022-09-11T16:57:04;7.70;;;3.75;;
59189;SDS011;50749;51.636;4.948;2022-09-11T16:59:33;4.78;;;2.60;;
59189;SDS011;50749;51.636;4.948;2022-09-11T17:01:59;7.18;;;2.60;;
59189;SDS011;50749;51.636;4.948;2022-09-11T17:04:26;2.92;;;2.25;;
59189;SDS011;50749;51.636;4.948;2022-09-11T17:06:52;3.17;;;2.60;;
59189;SDS011;50749;51.636;4.948;2022-09-11T17:09:17;3.08;;;2.20;;
59189;SDS011;50749;51.636;4.948;2022-09-11T17:11:44;3.80;;;2.20;;
59189;SDS011;50749;51.636;4.948;2022-09-11T17:14:12;2.80;;;1.90;;
59189;SDS011;50749;51.636;4.948;2022-09-11T17:16:38;4.55;;;2.28;;
59189;SDS011;50749;51.636;4.948;2022-09-11T17:19:04;4.50;;;2.13;;
59189;SDS011;50749;51.636;4.948;2022-09-11T17:21:30;3.50;;;1.80;;
59189;SDS011;50749;51.636;4.948;2022-09-11T17:24:02;4.03;;;2.38;;
59189;SDS011;50749;51.636;4.948;2022-09-11T17:26:29;3.35;;;2.35;;
59189;SDS011;50749;51.636;4.948;2022-09-11T17:28:57;8.63;;;3.13;;
59189;SDS011;50749;51.636;4.948;2022-09-11T17:31:25;4.03;;;2.25;;
59189;SDS011;50749;51.636;4.948;2022-09-11T17:33:51;3.78;;;2.70;;
59189;SDS011;50749;51.636;4.948;2022-09-11T17:36:18;3.35;;;2.42;;
59189;SDS011;50749;51.636;4.948;2022-09-11T17:38:46;3.30;;;2.78;;
59189;SDS011;50749;51.636;4.948;2022-09-11T17:41:13;5.60;;;2.85;;
59189;SDS011;50749;51.636;4.948;2022-09-11T17:43:40;6.72;;;2.80;;
59189;SDS011;50749;51.636;4.948;2022-09-11T17:46:08;7.70;;;3.55;;